Time;durP1;ratioP1;P1;durP2;ratioP2;P2;SDS_P1;SDS_P2;PMS_P1;PMS_P2;Temp;Humidity;BMP_temperature;BMP_pressure;BME280_temperature;BME280_humidity;BME280_pressure;Samples;Min_cycle;Max_cycle;Signal;HPM_P1;HPM_P2
2023/11/11 00:00:01;;;;;;;32.90;17.52;;;;;;;0.88;100.00;100420.44;5001061;28;20116;-83
2023/11/11 00:02:29;;;;;;;29.58;16.38;;;;;;;0.75;100.00;100417.09;5000777;28;20029;-84
2023/11/11 00:04:57;;;;;;;32.38;16.45;;;;;;;0.69;100.00;100422.00;5017412;28;20037;-83
2023/11/11 00:07:24;;;;;;;27.48;14.40;;;;;;;0.71;100.00;100436.81;5017117;28;20154;-84
2023/11/11 00:09:53;;;;;;;28.45;15.32;;;;;;;0.75;100.00;100442.72;5016918;28;20036;-84
2023/11/11 00:12:19;;;;;;;51.17;22.80;;;;;;;0.72;100.00;100451.75;5017054;28;20088;-84
2023/11/11 00:14:44;;;;;;;46.63;21.55;;;;;;;0.56;100.00;100457.38;5033227;28;20454;-84
2023/11/11 00:17:12;;;;;;;71.72;30.25;;;;;;;0.37;100.00;100465.91;5000650;28;20464;-84
2023/11/11 00:19:40;;;;;;;43.85;21.52;;;;;;;0.37;100.00;100457.09;5017813;28;20037;-84
2023/11/11 00:22:06;;;;;;;33.75;16.67;;;;;;;0.49;100.00;100448.22;5049750;28;20029;-84
2023/11/11 00:24:32;;;;;;;28.52;14.27;;;;;;;0.48;100.00;100440.41;5000474;28;20432;-84
2023/11/11 00:26:58;;;;;;;28.95;15.63;;;;;;;0.42;100.00;100447.00;5000472;28;20103;-84
2023/11/11 00:29:26;;;;;;;38.70;15.93;;;;;;;0.23;100.00;100450.22;5016632;28;20047;-84
2023/11/11 00:31:55;;;;;;;23.40;11.73;;;;;;;0.14;100.00;100464.16;5016693;28;20492;-85
2023/11/11 00:34:21;;;;;;;25.92;13.57;;;;;;;0.08;100.00;100462.81;5032986;28;20037;-83
2023/11/11 00:36:51;;;;;;;24.17;12.57;;;;;;;0.02;100.00;100459.78;5016395;28;20037;-84
2023/11/11 00:39:20;;;;;;;28.08;13.02;;;;;;;0.04;100.00;100450.78;5033140;28;20095;-85
2023/11/11 00:41:46;;;;;;;26.75;12.18;;;;;;;0.10;100.00;100439.72;5016594;28;20535;-84
2023/11/11 00:44:12;;;;;;;23.23;10.90;;;;;;;0.10;100.00;100439.72;5000311;28;20116;-84
2023/11/11 00:46:38;;;;;;;18.45;9.52;;;;;;;-0.01;100.00;100443.19;5032348;28;20460;-84
2023/11/11 00:49:09;;;;;;;21.83;10.48;;;;;;;-0.03;100.00;100436.34;5016189;28;20117;-84
2023/11/11 00:51:38;;;;;;;30.67;12.30;;;;;;;-0.07;100.00;100417.22;5016697;28;20037;-84
2023/11/11 00:54:05;;;;;;;38.85;11.77;;;;;;;-0.06;100.00;100415.44;5032563;28;20029;-84
2023/11/11 00:56:31;;;;;;;59.08;11.85;;;;;;;0.05;100.00;100427.84;5016264;28;20100;-84
2023/11/11 00:59:00;;;;;;;36.83;9.82;;;;;;;0.03;100.00;100424.44;5016170;28;20033;-84
2023/11/11 01:01:26;;;;;;;19.13;7.30;;;;;;;-0.12;100.00;100426.47;4997692;28;20049;-84
2023/11/11 01:03:51;;;;;;;13.95;6.13;;;;;;;-0.27;100.00;100425.81;5015804;28;20025;-84
2023/11/11 01:06:19;;;;;;;14.10;6.72;;;;;;;-0.45;100.00;100420.94;5015912;28;20030;-84
2023/11/11 01:08:48;;;;;;;14.23;4.85;;;;;;;-0.59;100.00;100418.47;5015777;28;20049;-84
2023/11/11 01:11:14;;;;;;;12.75;4.78;;;;;;;-0.57;100.00;100432.41;5032488;28;20033;-84
2023/11/11 01:13:39;;;;;;;11.80;5.40;;;;;;;-0.49;100.00;100429.22;4999581;28;20028;-84
2023/11/11 01:16:05;;;;;;;18.23;5.72;;;;;;;-0.35;100.00;100428.19;5033345;28;20025;-84
2023/11/11 01:18:31;;;;;;;11.60;4.75;;;;;;;-0.37;100.00;100433.59;5032368;28;20041;-83
2023/11/11 01:20:57;;;;;;;12.65;4.97;;;;;;;-0.38;100.00;100433.69;5032060;28;20030;-84
2023/11/11 01:23:23;;;;;;;15.65;5.00;;;;;;;-0.47;100.00;100422.84;5031971;28;20103;-84
2023/11/11 01:25:48;;;;;;;14.70;5.22;;;;;;;-0.49;100.00;100429.22;5015869;28;20069;-83
2023/11/11 01:28:15;;;;;;;10.60;4.50;;;;;;;-0.50;100.00;100425.72;4999616;28;20030;-83
2023/11/11 01:30:46;;;;;;;12.55;6.43;;;;;;;-0.35;100.00;100433.47;5015973;28;20384;-83
2023/11/11 01:33:12;;;;;;;9.20;4.68;;;;;;;-0.34;100.00;100429.88;5016312;28;20029;-83
2023/11/11 01:35:38;;;;;;;20.92;7.55;;;;;;;-0.36;100.00;100429.16;4999686;28;20448;-83
2023/11/11 01:38:03;;;;;;;14.05;6.25;;;;;;;-0.41;100.00;100418.06;4999325;28;20106;-84
2023/11/11 01:40:29;;;;;;;12.23;5.60;;;;;;;-0.38;100.00;100436.34;4999323;28;20031;-84
2023/11/11 01:42:58;;;;;;;12.20;5.25;;;;;;;-0.47;100.00;100433.41;4999557;28;20033;-83
2023/11/11 01:45:24;;;;;;;31.75;7.38;;;;;;;-0.53;100.00;100428.59;5031932;28;20025;-83
2023/11/11 01:47:50;;;;;;;20.42;5.68;;;;;;;-0.57;100.00;100418.38;4999472;28;20456;-83
2023/11/11 01:50:17;;;;;;;22.17;6.28;;;;;;;-0.58;100.00;100414.88;4999538;28;20117;-83
2023/11/11 01:52:43;;;;;;;18.13;7.35;;;;;;;-0.55;100.00;100406.72;5032168;28;20128;-84
2023/11/11 01:55:12;;;;;;;14.15;5.85;;;;;;;-0.57;100.00;100395.44;5018861;28;20061;-84
2023/11/11 01:57:41;;;;;;;19.08;5.85;;;;;;;-0.57;100.00;100395.44;5003195;28;20045;-83
2023/11/11 02:00:12;;;;;;;18.38;6.35;;;;;;;-0.58;100.00;100384.97;5019156;28;20033;-83
2023/11/11 02:02:40;;;;;;;9.43;4.45;;;;;;;-0.66;100.00;100388.22;5020021;28;20120;-84
2023/11/11 02:05:08;;;;;;;11.00;5.15;;;;;;;-0.80;100.00;100377.78;5003522;28;20471;-84
2023/11/11 02:07:37;;;;;;;10.25;4.30;;;;;;;-0.87;100.00;100366.88;5004264;28;20038;-83
2023/11/11 02:10:10;;;;;;;9.05;4.13;;;;;;;-0.90;100.00;100367.94;5047161;28;20041;-82
2023/11/11 02:12:36;;;;;;;;;;;;;;;-0.97;100.00;100369.31;5026166;28;20091;-84
2023/11/11 02:15:02;;;;;;;4.88;2.72;;;;;;;-1.13;100.00;100366.94;5068615;28;19952;-84
2023/11/11 02:17:29;;;;;;;10.90;2.85;;;;;;;-1.15;100.00;100383.84;5018929;28;20407;-83
2023/11/11 02:19:55;;;;;;;10.63;5.57;;;;;;;-1.18;100.00;100370.88;5018869;28;20080;-84
2023/11/11 02:22:23;;;;;;;13.40;5.40;;;;;;;-0.98;100.00;100380.84;5002951;28;20517;-84
2023/11/11 02:24:52;;;;;;;16.00;5.68;;;;;;;-0.49;100.00;100387.78;5003423;28;20063;-83
2023/11/11 02:27:17;;;;;;;15.10;5.10;;;;;;;-0.24;100.00;100381.53;5002927;28;20052;-83
2023/11/11 02:29:50;;;;;;;16.90;5.90;;;;;;;-0.11;100.00;100368.19;5018538;28;20419;-84
2023/11/11 02:32:16;;;;;;;10.93;5.18;;;;;;;-0.13;100.00;100358.69;5002242;28;20463;-84
2023/11/11 02:34:44;;;;;;;13.48;5.07;;;;;;;-0.27;100.00;100370.31;5002528;28;20044;-84
2023/11/11 02:37:13;;;;;;;7.30;4.07;;;;;;;-0.49;100.00;100365.81;5018271;28;20032;-84
2023/11/11 02:39:41;;;;;;;9.75;3.72;;;;;;;-0.62;100.00;100371.16;5002390;28;20037;-84
2023/11/11 02:42:06;;;;;;;6.68;3.97;;;;;;;-0.79;100.00;100369.78;5002091;28;20042;-83
2023/11/11 02:44:35;;;;;;;13.07;4.03;;;;;;;-0.88;100.00;100360.72;5034815;28;20076;-83
2023/11/11 02:47:03;;;;;;;10.77;4.40;;;;;;;-0.81;100.00;100369.03;5002118;28;20036;-83
2023/11/11 02:49:28;;;;;;;11.32;4.90;;;;;;;-0.73;100.00;100360.56;5018529;28;20040;-83
2023/11/11 02:51:54;;;;;;;15.00;6.93;;;;;;;-0.61;100.00;100350.88;5002103;28;20396;-84
2023/11/11 02:54:19;;;;;;;12.32;4.90;;;;;;;-0.67;100.00;100346.91;5018234;28;20480;-84
2023/11/11 02:56:45;;;;;;;12.25;4.65;;;;;;;-0.79;100.00;100355.75;5001660;28;20472;-83
2023/11/11 02:59:14;;;;;;;8.70;3.88;;;;;;;-1.00;100.00;100359.00;5018600;28;20044;-84
2023/11/11 03:01:40;;;;;;;9.70;3.83;;;;;;;-1.09;100.00;100362.28;5001838;28;20037;-85
2023/11/11 03:04:13;;;;;;;10.70;5.03;;;;;;;-1.13;100.00;100371.38;5018587;28;20076;-85
2023/11/11 03:06:42;;;;;;;6.85;3.80;;;;;;;-1.13;100.00;100382.78;5017373;28;20034;-84
2023/11/11 03:09:10;;;;;;;9.23;3.70;;;;;;;-1.11;100.00;100380.03;5034243;28;20476;-84
2023/11/11 03:11:37;;;;;;;10.75;4.63;;;;;;;-1.10;100.00;100392.25;5033811;28;20041;-84
2023/11/11 03:14:03;;;;;;;7.00;2.88;;;;;;;-0.76;100.00;100401.22;5018837;28;20033;-84
2023/11/11 03:16:36;;;;;;;6.78;2.35;;;;;;;-0.30;100.00;100402.25;5017997;28;20059;-84
2023/11/11 03:19:03;;;;;;;6.20;3.03;;;;;;;-0.06;100.00;100405.69;5017381;28;20030;-84
2023/11/11 03:21:30;;;;;;;7.47;2.22;;;;;;;0.24;100.00;100409.63;5033812;28;20037;-84
2023/11/11 03:23:59;;;;;;;5.60;2.38;;;;;;;0.37;100.00;100413.00;5017579;28;20116;-85
2023/11/11 03:26:27;;;;;;;4.22;2.50;;;;;;;0.20;100.00;100398.41;5001586;28;20049;-84
2023/11/11 03:29:01;;;;;;;5.32;2.00;;;;;;;0.05;100.00;100411.97;5018129;28;20025;-83
2023/11/11 03:31:26;;;;;;;5.50;2.05;;;;;;;-0.06;100.00;100418.91;5017803;28;20045;-84
2023/11/11 03:33:52;;;;;;;9.18;2.97;;;;;;;-0.23;100.00;100427.28;5033796;28;20513;-84
2023/11/11 03:36:20;;;;;;;4.60;2.30;;;;;;;-0.30;100.00;100429.53;5017789;28;20419;-84
2023/11/11 03:38:48;;;;;;;4.50;2.33;;;;;;;-0.32;100.00;100427.94;5017438;28;20033;-84
2023/11/11 03:41:14;;;;;;;6.13;2.55;;;;;;;-0.23;100.00;100440.50;5001121;28;20081;-84
2023/11/11 03:43:39;;;;;;;13.55;2.72;;;;;;;-0.16;100.00;100436.44;5017465;28;20114;-84
2023/11/11 03:46:08;;;;;;;7.57;3.00;;;;;;;-0.02;100.00;100432.75;5049844;28;20115;-84
2023/11/11 03:48:36;;;;;;;5.25;2.80;;;;;;;0.04;100.00;100434.91;5016769;28;20091;-85
2023/11/11 03:51:03;;;;;;;11.02;2.78;;;;;;;0.04;100.00;100434.09;5017059;28;20392;-84
2023/11/11 03:53:31;;;;;;;5.40;2.85;;;;;;;-0.19;100.00;100433.16;5033574;28;20029;-85
2023/11/11 03:56:08;;;;;;;8.70;3.47;;;;;;;-0.49;100.00;100432.69;5017548;28;20521;-84
2023/11/11 03:58:35;;;;;;;11.95;3.30;;;;;;;-0.57;100.00;100436.84;5013372;28;20053;-85
2023/11/11 04:01:00;;;;;;;4.90;3.17;;;;;;;-0.65;100.00;100432.13;5017298;28;20479;-84
2023/11/11 04:03:28;;;;;;;5.20;2.80;;;;;;;-0.67;100.00;100424.31;5000465;28;20040;-84
2023/11/11 04:05:54;;;;;;;12.98;3.42;;;;;;;-0.73;100.00;100422.13;5016591;28;20035;-85
2023/11/11 04:08:19;;;;;;;9.73;3.17;;;;;;;-0.80;100.00;100428.78;5032977;28;20041;-86
2023/11/11 04:10:47;;;;;;;6.60;3.17;;;;;;;-0.95;100.00;100422.00;5000621;28;20483;-85
2023/11/11 04:13:13;;;;;;;11.15;3.38;;;;;;;-1.18;100.00;100399.88;5017280;28;20045;-85
2023/11/11 04:15:41;;;;;;;5.07;3.00;;;;;;;-1.06;100.00;100416.63;5016887;28;20033;-85
2023/11/11 04:18:09;;;;;;;11.18;5.13;;;;;;;-1.12;100.00;100410.00;5032678;28;20061;-84
2023/11/11 04:20:38;;;;;;;17.67;5.95;;;;;;;-1.20;100.00;100402.63;5022575;28;20029;-85
2023/11/11 04:23:04;;;;;;;11.40;4.85;;;;;;;-1.23;100.00;100402.00;5034570;28;20125;-84
2023/11/11 04:25:29;;;;;;;16.80;4.13;;;;;;;-1.23;100.00;100400.22;5003993;28;20076;-85
2023/11/11 04:27:55;;;;;;;12.57;3.63;;;;;;;-1.18;100.00;100394.63;5032854;28;20064;-85
2023/11/11 04:30:23;;;;;;;14.93;3.65;;;;;;;-1.42;100.00;100361.13;5032616;28;20028;-85
2023/11/11 04:32:51;;;;;;;29.10;4.35;;;;;;;-1.37;100.00;100390.63;5017007;28;20379;-84
2023/11/11 04:35:17;;;;;;;16.50;3.15;;;;;;;-1.28;100.00;100394.41;5016801;28;20460;-85
2023/11/11 04:37:43;;;;;;;12.23;2.75;;;;;;;-1.34;100.00;100387.78;5000198;28;20037;-85
2023/11/11 04:40:10;;;;;;;13.00;2.83;;;;;;;-1.43;100.00;100391.09;5032668;28;20037;-85
2023/11/11 04:42:38;;;;;;;15.90;2.80;;;;;;;-1.54;100.00;100383.06;5032285;28;20087;-85
2023/11/11 04:45:04;;;;;;;7.63;3.00;;;;;;;-1.57;100.00;100391.19;4999875;28;20391;-85
2023/11/11 04:47:32;;;;;;;5.95;2.50;;;;;;;-1.53;100.00;100379.50;5032533;28;20025;-84
2023/11/11 04:50:01;;;;;;;8.10;2.65;;;;;;;-1.54;100.00;100377.78;5032242;28;20025;-85
2023/11/11 04:52:27;;;;;;;9.80;2.60;;;;;;;-1.57;100.00;100375.38;4999984;28;20029;-85
2023/11/11 04:54:57;;;;;;;22.85;3.85;;;;;;;-1.51;100.00;100374.09;5032355;28;20039;-85
2023/11/11 04:57:23;;;;;;;15.18;3.47;;;;;;;-1.30;100.00;100377.84;4999974;28;20072;-86
2023/11/11 04:59:48;;;;;;;11.27;3.25;;;;;;;-1.22;100.00;100372.88;4999993;28;20120;-85
2023/11/11 05:02:16;;;;;;;18.67;3.75;;;;;;;-1.16;100.00;100374.25;5031888;28;20443;-85
2023/11/11 05:04:42;;;;;;;16.42;3.50;;;;;;;-1.21;100.00;100363.19;5032455;28;20029;-85
2023/11/11 05:07:09;;;;;;;9.93;3.17;;;;;;;-1.19;100.00;100367.41;4999463;28;20067;-84
2023/11/11 05:09:35;;;;;;;19.35;4.60;;;;;;;-1.16;100.00;100355.78;4999819;28;20472;-85
2023/11/11 05:12:00;;;;;;;30.65;5.85;;;;;;;-1.00;100.00;100345.78;5032347;28;20075;-86
2023/11/11 05:14:26;;;;;;;24.85;5.00;;;;;;;-0.96;100.00;100331.41;5032398;28;20064;-86
2023/11/11 05:16:52;;;;;;;9.95;3.28;;;;;;;-0.99;100.00;100333.44;5015846;28;20044;-85
2023/11/11 05:19:18;;;;;;;14.45;4.90;;;;;;;-1.12;100.00;100328.19;5033504;28;20376;-86
2023/11/11 05:21:44;;;;;;;11.80;4.20;;;;;;;-1.09;100.00;100329.78;4999646;28;20076;-85
2023/11/11 05:24:10;;;;;;;12.05;3.72;;;;;;;-0.99;100.00;100326.34;5015998;28;20037;-86
2023/11/11 05:26:42;;;;;;;7.35;3.65;;;;;;;-0.96;100.00;100326.13;5032040;28;20133;-87
2023/11/11 05:29:10;;;;;;;16.95;3.33;;;;;;;-0.93;100.00;100320.66;4994888;28;20150;-85
2023/11/11 05:31:36;;;;;;;7.15;3.50;;;;;;;-0.93;100.00;100317.13;5003759;28;20033;-85
2023/11/11 05:34:03;;;;;;;12.25;3.13;;;;;;;-0.97;100.00;100318.34;5036371;28;20393;-85
2023/11/11 05:36:33;;;;;;;9.75;2.97;;;;;;;-1.12;100.00;100304.47;5019968;28;20592;-86
2023/11/11 05:39:19;;;;;;;9.88;2.90;;;;;;;-1.07;100.00;100322.59;5021273;28;20045;-85
2023/11/11 05:41:45;;;;;;;6.72;2.45;;;;;;;-1.19;100.00;100325.19;5003664;28;20037;-86
2023/11/11 05:44:15;;;;;;;6.28;2.25;;;;;;;-1.12;100.00;100336.13;5019756;28;20048;-85
2023/11/11 05:46:44;;;;;;;6.53;2.20;;;;;;;-1.08;100.00;100328.84;5020077;28;20025;-84
2023/11/11 05:49:12;;;;;;;5.70;2.45;;;;;;;-0.90;100.00;100338.91;5019407;28;20105;-86
2023/11/11 05:51:37;;;;;;;3.10;2.17;;;;;;;-0.82;100.00;100334.81;5003524;28;20037;-85
2023/11/11 05:54:03;;;;;;;8.15;2.33;;;;;;;-0.88;100.00;100339.59;5019057;28;20038;-85
2023/11/11 05:56:29;;;;;;;40.13;4.22;;;;;;;-1.05;100.00;100339.16;5003767;28;20048;-85
2023/11/11 05:58:59;;;;;;;6.45;2.08;;;;;;;-1.21;100.00;100339.44;5035560;28;20041;-85
2023/11/11 06:01:27;;;;;;;18.73;3.03;;;;;;;-1.28;100.00;100335.53;5035371;28;20116;-85
2023/11/11 06:03:56;;;;;;;8.60;2.53;;;;;;;-1.23;100.00;100330.78;5002350;28;20103;-85
2023/11/11 06:06:22;;;;;;;8.88;3.38;;;;;;;-1.20;100.00;100322.66;5019157;28;20057;-86
2023/11/11 06:08:48;;;;;;;8.07;2.95;;;;;;;-1.07;100.00;100326.06;5018799;28;20063;-86
2023/11/11 06:11:16;;;;;;;7.70;3.08;;;;;;;-1.12;100.00;100326.41;5019228;28;20467;-85
2023/11/11 06:13:42;;;;;;;7.35;2.53;;;;;;;-1.29;100.00;100308.34;5035349;28;20460;-85
2023/11/11 06:16:10;;;;;;;10.07;2.63;;;;;;;-1.38;100.00;100315.09;5002846;28;20037;-85
2023/11/11 06:18:41;;;;;;;6.68;2.40;;;;;;;-1.41;100.00;100304.78;5035444;28;20480;-85
2023/11/11 06:21:08;;;;;;;11.68;2.35;;;;;;;-1.47;100.00;100305.22;5002662;28;20032;-85
2023/11/11 06:23:33;;;;;;;7.32;2.58;;;;;;;-1.54;100.00;100306.59;5018939;28;20061;-85
2023/11/11 06:26:10;;;;;;;10.00;2.78;;;;;;;-1.56;100.00;100303.25;5002535;28;20042;-85
2023/11/11 06:28:36;;;;;;;12.80;2.45;;;;;;;-1.55;100.00;100295.22;5004113;28;20029;-85
2023/11/11 06:31:01;;;;;;;7.82;2.35;;;;;;;-1.63;100.00;100284.38;5025611;28;20029;-85
2023/11/11 06:33:28;;;;;;;6.75;2.78;;;;;;;-1.55;100.00;100313.66;5038170;28;20025;-85
2023/11/11 06:35:54;;;;;;;13.52;2.97;;;;;;;-1.47;100.00;100321.03;5042741;28;20102;-86
2023/11/11 06:38:19;;;;;;;8.90;2.28;;;;;;;-1.51;100.00;100324.00;5035229;28;20460;-85
2023/11/11 06:40:45;;;;;;;8.73;2.80;;;;;;;-1.62;100.00;100308.94;5034572;28;20036;-86
2023/11/11 06:43:13;;;;;;;4.35;2.30;;;;;;;-1.63;100.00;100316.00;5035308;28;20025;-86
2023/11/11 06:45:42;;;;;;;4.25;2.05;;;;;;;-1.61;100.00;100331.72;5035243;28;20069;-85
2023/11/11 06:48:08;;;;;;;3.42;2.22;;;;;;;-1.75;100.00;100319.50;5034826;28;20060;-85
2023/11/11 06:50:34;;;;;;;7.50;2.17;;;;;;;-1.58;100.00;100345.53;5018506;28;20146;-85
2023/11/11 06:53:00;;;;;;;3.33;2.17;;;;;;;-1.30;100.00;100348.00;5034525;28;20507;-84
2023/11/11 06:55:29;;;;;;;5.63;2.70;;;;;;;-1.11;100.00;100351.84;5002282;28;20037;-85
2023/11/11 06:57:58;;;;;;;3.83;2.17;;;;;;;-1.06;100.00;100355.94;5035668;28;20043;-85
2023/11/11 07:00:25;;;;;;;8.95;3.03;;;;;;;-1.00;100.00;100345.78;5018353;28;20029;-85
2023/11/11 07:02:56;;;;;;;18.33;3.40;;;;;;;-0.79;100.00;100343.38;5018891;28;20035;-84
2023/11/11 07:05:22;;;;;;;16.30;3.22;;;;;;;-0.58;100.00;100345.38;5017897;28;20380;-85
2023/11/11 07:07:47;;;;;;;21.55;3.67;;;;;;;-0.48;100.00;100344.59;5001611;28;20033;-88
2023/11/11 07:10:13;;;;;;;17.15;4.78;;;;;;;-0.43;100.00;100340.75;5018132;28;20551;-86
2023/11/11 07:12:39;;;;;;;25.58;5.93;;;;;;;-0.42;100.00;100339.78;5034258;28;20030;-86
2023/11/11 07:15:05;;;;;;;29.73;6.05;;;;;;;-0.41;100.00;100346.75;5001625;28;20033;-85
2023/11/11 07:17:34;;;;;;;32.15;7.05;;;;;;;-0.49;100.00;100345.53;5018018;28;20128;-85
2023/11/11 07:20:02;;;;;;;23.60;4.70;;;;;;;-0.49;100.00;100353.44;5018038;28;20033;-86
2023/11/11 07:22:29;;;;;;;19.52;4.20;;;;;;;-0.57;100.00;100344.44;5018289;28;20033;-85
2023/11/11 07:25:00;;;;;;;13.35;3.50;;;;;;;-0.58;100.00;100348.00;5002311;28;20045;-85
2023/11/11 07:27:29;;;;;;;17.02;3.67;;;;;;;-0.64;100.00;100344.03;5001829;28;20033;-87
2023/11/11 07:29:55;;;;;;;13.05;2.97;;;;;;;-0.65;100.00;100342.34;5035421;28;20036;-85
2023/11/11 07:32:22;;;;;;;8.13;2.85;;;;;;;-0.70;100.00;100341.84;5035497;28;20498;-85
2023/11/11 07:34:47;;;;;;;13.70;3.22;;;;;;;-0.75;100.00;100365.94;5017698;28;20037;-85
2023/11/11 07:37:13;;;;;;;12.85;2.42;;;;;;;-0.84;100.00;100371.06;5034215;28;20056;-86
2023/11/11 07:39:43;;;;;;;8.60;2.65;;;;;;;-0.85;100.00;100366.72;5033610;28;20033;-85
2023/11/11 07:42:12;;;;;;;15.00;3.90;;;;;;;-0.90;100.00;100359.13;5033519;28;20033;-85
2023/11/11 07:44:37;;;;;;;9.98;2.60;;;;;;;-0.94;100.00;100358.53;5033865;28;20030;-86
2023/11/11 07:47:06;;;;;;;18.33;3.70;;;;;;;-0.94;100.00;100370.88;5016541;28;20474;-86
2023/11/11 07:49:40;;;;;;;12.25;3.55;;;;;;;-0.98;100.00;100375.56;4999224;28;20383;-85
2023/11/11 07:52:06;;;;;;;16.83;4.53;;;;;;;-0.92;100.00;100371.63;4998415;28;20029;-84
2023/11/11 07:54:33;;;;;;;19.58;6.32;;;;;;;-0.91;100.00;100368.88;5014908;28;20036;-85
2023/11/11 07:56:59;;;;;;;18.20;5.90;;;;;;;-0.90;100.00;100372.34;4998735;28;20029;-84
2023/11/11 07:59:29;;;;;;;19.60;4.90;;;;;;;-0.80;100.00;100357.50;5014292;28;20052;-83
2023/11/11 08:01:55;;;;;;;7.80;3.10;;;;;;;-0.69;100.00;100365.50;5031881;28;20030;-84
2023/11/11 08:04:25;;;;;;;7.72;3.67;;;;;;;-0.60;100.00;100371.91;5031278;28;20490;-84
2023/11/11 08:06:54;;;;;;;15.65;4.80;;;;;;;-0.55;100.00;100366.28;5017750;28;20041;-87
2023/11/11 08:09:20;;;;;;;10.45;4.63;;;;;;;-0.57;100.00;100368.19;5000504;28;20095;-84
2023/11/11 08:11:47;;;;;;;13.20;3.72;;;;;;;-0.51;100.00;100358.00;5016702;28;20112;-85
2023/11/11 08:14:15;;;;;;;6.93;3.42;;;;;;;-0.43;100.00;100357.44;5033263;28;20487;-84
2023/11/11 08:16:42;;;;;;;11.10;4.28;;;;;;;-0.36;100.00;100360.47;5000274;28;20037;-85
2023/11/11 08:19:08;;;;;;;8.02;3.25;;;;;;;-0.41;100.00;100352.03;5033517;28;20128;-84
2023/11/11 08:21:35;;;;;;;11.45;4.20;;;;;;;-0.41;100.00;100352.03;5000625;28;20405;-84
2023/11/11 08:24:05;;;;;;;21.00;5.38;;;;;;;-0.41;100.00;100346.75;5033146;28;20590;-84
2023/11/11 08:26:34;;;;;;;14.10;4.35;;;;;;;-0.38;100.00;100349.16;5016869;28;20539;-85
2023/11/11 08:29:03;;;;;;;38.85;8.57;;;;;;;-0.36;100.00;100342.81;4999756;28;20055;-85
2023/11/11 08:31:31;;;;;;;35.80;9.60;;;;;;;-0.34;100.00;100337.44;5016514;28;20080;-85
2023/11/11 08:33:57;;;;;;;26.80;7.13;;;;;;;-0.33;100.00;100341.75;4999896;28;20033;-86
2023/11/11 08:36:24;;;;;;;24.92;7.32;;;;;;;-0.27;100.00;100328.88;5032454;28;20042;-85
2023/11/11 08:38:53;;;;;;;28.20;8.23;;;;;;;-0.21;100.00;100332.88;5016821;28;20048;-83
2023/11/11 08:41:25;;;;;;;18.83;6.47;;;;;;;-0.14;100.00;100334.09;5000153;28;20042;-84
2023/11/11 08:43:50;;;;;;;14.50;5.45;;;;;;;-0.11;100.00;100338.28;4999189;28;20033;-84
2023/11/11 08:46:16;;;;;;;15.43;4.82;;;;;;;-0.06;100.00;100346.72;5016650;28;20032;-86
2023/11/11 08:48:42;;;;;;;12.63;5.32;;;;;;;0.01;100.00;100342.66;5040290;28;20025;-84
2023/11/11 08:51:11;;;;;;;26.50;10.13;;;;;;;0.18;100.00;100343.97;5044440;28;20064;-84
2023/11/11 08:53:37;;;;;;;12.65;6.00;;;;;;;0.22;100.00;100342.78;4988382;28;20033;-85
2023/11/11 08:56:03;;;;;;;21.73;6.97;;;;;;;0.27;100.00;100347.72;5032554;28;20112;-86
2023/11/11 08:58:29;;;;;;;12.48;4.78;;;;;;;0.29;100.00;100330.78;5032308;28;20033;-84
2023/11/11 09:00:57;;;;;;;18.17;7.13;;;;;;;0.49;100.00;100329.19;5015985;28;20127;-85
2023/11/11 09:03:28;;;;;;;12.90;4.93;;;;;;;0.60;100.00;100325.69;4999956;28;20045;-86
2023/11/11 09:05:54;;;;;;;15.20;5.40;;;;;;;0.60;100.00;100323.88;5032149;28;20396;-85
2023/11/11 09:08:20;;;;;;;13.88;5.78;;;;;;;0.67;100.00;100332.19;5015627;28;20472;-87
2023/11/11 09:10:46;;;;;;;9.20;4.65;;;;;;;0.80;100.00;100329.41;5017018;28;20041;-85
2023/11/11 09:13:12;;;;;;;9.77;4.60;;;;;;;0.94;100.00;100330.94;4999777;28;20037;-87
2023/11/11 09:15:37;;;;;;;16.02;4.57;;;;;;;1.17;100.00;100324.59;5032150;28;20134;-86
2023/11/11 09:18:04;;;;;;;9.38;4.20;;;;;;;1.58;100.00;100309.72;4999620;28;20029;-86
2023/11/11 09:20:32;;;;;;;10.32;4.18;;;;;;;1.88;100.00;100316.03;5032284;28;20104;-85
2023/11/11 09:22:58;;;;;;;10.82;6.13;;;;;;;2.20;100.00;100303.50;5016135;28;20038;-86
2023/11/11 09:25:26;;;;;;;12.00;4.82;;;;;;;2.62;100.00;100295.41;5015863;28;20499;-85
2023/11/11 09:27:53;;;;;;;12.57;4.32;;;;;;;3.01;100.00;100310.56;4999655;28;20034;-85
2023/11/11 09:30:22;;;;;;;10.55;3.30;;;;;;;3.43;100.00;100311.13;5031655;28;20033;-84
2023/11/11 09:32:48;;;;;;;8.13;3.20;;;;;;;3.78;100.00;100298.22;5032005;28;20033;-84
2023/11/11 09:35:17;;;;;;;13.75;4.20;;;;;;;3.99;100.00;100290.88;4999611;28;20038;-84
2023/11/11 09:37:44;;;;;;;11.40;3.90;;;;;;;3.96;100.00;100301.81;5015678;28;20124;-84
2023/11/11 09:40:13;;;;;;;9.73;3.72;;;;;;;4.41;100.00;100299.28;4999338;28;20040;-84
2023/11/11 09:42:42;;;;;;;8.75;3.17;;;;;;;4.96;100.00;100295.75;5032039;28;20037;-85
2023/11/11 09:45:10;;;;;;;8.68;2.90;;;;;;;5.05;100.00;100294.84;4999042;28;20042;-84
2023/11/11 09:47:42;;;;;;;6.40;3.05;;;;;;;4.69;100.00;100291.28;5000438;28;20036;-86
2023/11/11 09:50:10;;;;;;;6.40;2.75;;;;;;;4.66;100.00;100294.25;5032165;28;20067;-86
2023/11/11 09:52:37;;;;;;;10.32;2.70;;;;;;;4.76;100.00;100283.53;4998750;28;20036;-86
2023/11/11 09:55:07;;;;;;;5.97;3.03;;;;;;;5.02;100.00;100283.63;5014239;28;20022;-84
2023/11/11 09:57:36;;;;;;;12.30;2.83;;;;;;;5.02;100.00;100280.97;4999292;28;20069;-84
2023/11/11 10:00:01;;;;;;;12.45;3.03;;;;;;;4.91;100.00;100274.03;5015268;28;20033;-84
2023/11/11 10:02:27;;;;;;;7.43;2.83;;;;;;;4.93;100.00;100277.41;5015664;28;20383;-85
2023/11/11 10:04:54;;;;;;;13.32;3.10;;;;;;;4.90;100.00;100279.53;4998899;28;20041;-84
2023/11/11 10:07:25;;;;;;;10.77;2.83;;;;;;;4.79;100.00;100267.25;4999186;28;20029;-85
2023/11/11 10:09:51;;;;;;;5.20;2.42;;;;;;;4.78;100.00;100274.41;4998371;28;20032;-84
2023/11/11 10:12:17;;;;;;;7.82;2.83;;;;;;;4.82;100.00;100273.13;5014536;28;20033;-85
2023/11/11 10:14:42;;;;;;;7.00;2.33;;;;;;;4.89;100.00;100278.69;4999086;28;20091;-85
2023/11/11 10:17:13;;;;;;;8.10;2.60;;;;;;;4.96;100.00;100278.91;5002854;28;20057;-85
2023/11/11 10:19:42;;;;;;;9.18;2.72;;;;;;;4.98;100.00;100260.97;5018834;28;20068;-85
2023/11/11 10:22:08;;;;;;;15.13;3.20;;;;;;;5.10;100.00;100267.72;5000153;28;20045;-85
2023/11/11 10:24:34;;;;;;;11.00;3.10;;;;;;;5.18;100.00;100275.78;5018611;28;20101;-84
2023/11/11 10:27:00;;;;;;;14.65;3.33;;;;;;;5.19;100.00;100274.81;5018909;28;20026;-85
2023/11/11 10:29:26;;;;;;;9.55;2.65;;;;;;;5.26;100.00;100275.03;5018712;28;20037;-85
2023/11/11 10:31:52;;;;;;;9.10;2.95;;;;;;;5.28;100.00;100273.88;5018984;28;20087;-85
2023/11/11 10:34:18;;;;;;;10.25;2.60;;;;;;;5.26;100.00;100251.88;5018762;28;20120;-85
2023/11/11 10:36:45;;;;;;;8.40;2.70;;;;;;;5.49;100.00;100262.06;5035280;28;20046;-85
2023/11/11 10:39:11;;;;;;;12.45;3.10;;;;;;;5.61;100.00;100257.31;5035212;28;20036;-85
2023/11/11 10:41:38;;;;;;;13.73;3.42;;;;;;;5.54;100.00;100235.78;5034856;28;20057;-85
2023/11/11 10:44:07;;;;;;;7.40;2.72;;;;;;;5.56;100.00;100248.94;5002220;28;20033;-85
2023/11/11 10:46:39;;;;;;;10.88;3.33;;;;;;;5.50;100.00;100239.72;5002847;28;20090;-84
2023/11/11 10:49:08;;;;;;;8.57;2.95;;;;;;;5.40;100.00;100221.19;5002534;28;20032;-84
2023/11/11 10:51:34;;;;;;;6.57;2.13;;;;;;;5.46;100.00;100233.03;5018868;28;20064;-85
2023/11/11 10:54:03;;;;;;;13.90;3.83;;;;;;;5.50;100.00;100229.06;5002159;28;20048;-83
2023/11/11 10:56:32;;;;;;;4.68;2.08;;;;;;;5.50;100.00;100224.59;5002042;28;20500;-82
2023/11/11 10:59:02;;;;;;;9.02;2.63;;;;;;;5.55;100.00;100225.94;5017723;28;20488;-81
2023/11/11 11:01:29;;;;;;;9.30;2.30;;;;;;;5.58;100.00;100221.13;5033884;28;20383;-82
2023/11/11 11:03:55;;;;;;;8.02;2.63;;;;;;;5.62;100.00;100201.16;5000978;28;20037;-82
2023/11/11 11:06:32;;;;;;;9.05;2.42;;;;;;;5.75;100.00;100210.56;5034042;28;20099;-81
2023/11/11 11:09:17;;;;;;;8.05;2.60;;;;;;;5.85;100.00;100211.28;5018038;28;20063;-81
2023/11/11 11:11:53;;;;;;;11.32;2.60;;;;;;;5.87;100.00;100194.09;5034024;28;20029;-82
2023/11/11 11:14:40;;;;;;;12.43;2.60;;;;;;;5.99;100.00;100193.88;5002135;28;20094;-82